sensor_id;sensor_type;location;lat;lon;timestamp;temperature;humidity
68648;SHT31;55632;51.962;16.116;2023-02-28T00:00:46;1.05;76.56
68648;SHT31;55632;51.962;16.116;2023-02-28T00:05:47;1.02;76.64
68648;SHT31;55632;51.962;16.116;2023-02-28T00:10:50;1.02;76.74
68648;SHT31;55632;51.962;16.116;2023-02-28T00:16:03;1.04;76.84
68648;SHT31;55632;51.962;16.116;2023-02-28T00:21:04;1.07;76.70
68648;SHT31;55632;51.962;16.116;2023-02-28T00:26:10;1.07;76.66
68648;SHT31;55632;51.962;16.116;2023-02-28T00:31:12;1.11;76.67
68648;SHT31;55632;51.962;16.116;2023-02-28T00:36:13;1.11;76.38
68648;SHT31;55632;51.962;16.116;2023-02-28T00:41:14;1.09;76.30
68648;SHT31;55632;51.962;16.116;2023-02-28T00:46:15;1.09;76.35
68648;SHT31;55632;51.962;16.116;2023-02-28T00:51:19;1.09;76.40
68648;SHT31;55632;51.962;16.116;2023-02-28T00:56:23;1.08;76.44
68648;SHT31;55632;51.962;16.116;2023-02-28T01:01:24;1.05;76.58
68648;SHT31;55632;51.962;16.116;2023-02-28T01:06:27;1.07;76.59
68648;SHT31;55632;51.962;16.116;2023-02-28T01:11:34;1.09;76.57
68648;SHT31;55632;51.962;16.116;2023-02-28T01:16:38;1.11;76.57
68648;SHT31;55632;51.962;16.116;2023-02-28T01:21:41;1.09;76.62
68648;SHT31;55632;51.962;16.116;2023-02-28T01:26:42;1.12;76.64
68648;SHT31;55632;51.962;16.116;2023-02-28T01:31:46;1.11;76.49
68648;SHT31;55632;51.962;16.116;2023-02-28T01:36:47;1.16;76.42
68648;SHT31;55632;51.962;16.116;2023-02-28T01:41:48;1.08;76.33
68648;SHT31;55632;51.962;16.116;2023-02-28T01:46:52;1.08;76.41
68648;SHT31;55632;51.962;16.116;2023-02-28T01:51:54;1.08;76.52
68648;SHT31;55632;51.962;16.116;2023-02-28T01:57:01;1.11;76.51
68648;SHT31;55632;51.962;16.116;2023-02-28T02:02:06;1.09;76.48
68648;SHT31;55632;51.962;16.116;2023-02-28T02:07:08;1.07;76.56
68648;SHT31;55632;51.962;16.116;2023-02-28T02:12:41;1.05;76.49
68648;SHT31;55632;51.962;16.116;2023-02-28T02:17:49;1.01;76.49
68648;SHT31;55632;51.962;16.116;2023-02-28T02:44:30;0.79;76.55
68648;SHT31;55632;51.962;16.116;2023-02-28T02:49:33;0.73;76.59
68648;SHT31;55632;51.962;16.116;2023-02-28T02:54:38;0.64;76.71
68648;SHT31;55632;51.962;16.116;2023-02-28T02:59:41;0.60;76.66
68648;SHT31;55632;51.962;16.116;2023-02-28T03:04:46;0.49;76.82
68648;SHT31;55632;51.962;16.116;2023-02-28T03:09:51;0.45;76.82
68648;SHT31;55632;51.962;16.116;2023-02-28T03:30:45;0.24;76.95
68648;SHT31;55632;51.962;16.116;2023-02-28T03:36:13;0.15;76.95
68648;SHT31;55632;51.962;16.116;2023-02-28T03:41:19;0.10;77.07
68648;SHT31;55632;51.962;16.116;2023-02-28T03:46:24;0.04;77.14
68648;SHT31;55632;51.962;16.116;2023-02-28T03:51:26;-0.03;77.15
68648;SHT31;55632;51.962;16.116;2023-02-28T03:56:46;-0.11;77.23
68648;SHT31;55632;51.962;16.116;2023-02-28T04:01:49;-0.18;77.33
68648;SHT31;55632;51.962;16.116;2023-02-28T04:06:51;-0.23;77.42
68648;SHT31;55632;51.962;16.116;2023-02-28T04:11:52;-0.25;77.49
68648;SHT31;55632;51.962;16.116;2023-02-28T04:16:53;-0.35;77.53
68648;SHT31;55632;51.962;16.116;2023-02-28T04:21:56;-0.44;77.58
68648;SHT31;55632;51.962;16.116;2023-02-28T04:26:58;-0.51;77.75
68648;SHT31;55632;51.962;16.116;2023-02-28T04:31:59;-0.59;77.91
68648;SHT31;55632;51.962;16.116;2023-02-28T04:37:01;-0.66;78.00
68648;SHT31;55632;51.962;16.116;2023-02-28T04:42:01;-0.76;78.12
68648;SHT31;55632;51.962;16.116;2023-02-28T04:47:02;-0.83;78.31
68648;SHT31;55632;51.962;16.116;2023-02-28T04:52:03;-0.90;78.32
68648;SHT31;55632;51.962;16.116;2023-02-28T04:57:05;-1.00;78.44
68648;SHT31;55632;51.962;16.116;2023-02-28T05:02:06;-1.04;78.63
68648;SHT31;55632;51.962;16.116;2023-02-28T05:07:07;-1.13;78.69
68648;SHT31;55632;51.962;16.116;2023-02-28T05:12:08;-1.21;78.88
68648;SHT31;55632;51.962;16.116;2023-02-28T05:17:09;-1.27;79.01
68648;SHT31;55632;51.962;16.116;2023-02-28T05:22:14;-1.37;79.15
68648;SHT31;55632;51.962;16.116;2023-02-28T05:27:18;-1.38;79.31
68648;SHT31;55632;51.962;16.116;2023-02-28T05:32:19;-1.44;79.45
68648;SHT31;55632;51.962;16.116;2023-02-28T05:37:20;-1.49;79.52
68648;SHT31;55632;51.962;16.116;2023-02-28T05:42:21;-1.56;79.70
68648;SHT31;55632;51.962;16.116;2023-02-28T05:47:21;-1.58;79.71
68648;SHT31;55632;51.962;16.116;2023-02-28T05:52:22;-1.62;79.90
68648;SHT31;55632;51.962;16.116;2023-02-28T05:57:23;-1.67;80.00
68648;SHT31;55632;51.962;16.116;2023-02-28T06:02:24;-1.70;80.04
68648;SHT31;55632;51.962;16.116;2023-02-28T06:07:25;-1.74;80.15
68648;SHT31;55632;51.962;16.116;2023-02-28T06:12:26;-1.79;80.25
68648;SHT31;55632;51.962;16.116;2023-02-28T06:17:27;-1.80;80.52
68648;SHT31;55632;51.962;16.116;2023-02-28T06:22:27;-1.79;80.63
68648;SHT31;55632;51.962;16.116;2023-02-28T06:27:28;-1.74;80.87
68648;SHT31;55632;51.962;16.116;2023-02-28T06:32:29;-1.70;81.04
68648;SHT31;55632;51.962;16.116;2023-02-28T06:37:31;-1.60;81.23
68648;SHT31;55632;51.962;16.116;2023-02-28T06:42:32;-1.54;81.35
68648;SHT31;55632;51.962;16.116;2023-02-28T06:47:33;-1.41;81.43
68648;SHT31;55632;51.962;16.116;2023-02-28T06:52:34;-1.32;81.58
68648;SHT31;55632;51.962;16.116;2023-02-28T06:57:37;-1.21;81.62
68648;SHT31;55632;51.962;16.116;2023-02-28T07:02:38;-1.05;81.75
68648;SHT31;55632;51.962;16.116;2023-02-28T07:07:39;-0.90;81.76
68648;SHT31;55632;51.962;16.116;2023-02-28T07:12:43;-0.70;81.69
68648;SHT31;55632;51.962;16.116;2023-02-28T07:17:44;-0.59;81.61
68648;SHT31;55632;51.962;16.116;2023-02-28T07:22:45;-0.44;81.40
68648;SHT31;55632;51.962;16.116;2023-02-28T07:27:46;-0.31;81.28
68648;SHT31;55632;51.962;16.116;2023-02-28T07:32:47;-0.17;81.03
68648;SHT31;55632;51.962;16.116;2023-02-28T07:37:48;-0.07;80.79
68648;SHT31;55632;51.962;16.116;2023-02-28T07:42:49;0.05;80.61
68648;SHT31;55632;51.962;16.116;2023-02-28T07:47:51;0.15;80.22
68648;SHT31;55632;51.962;16.116;2023-02-28T07:52:52;0.28;79.99
68648;SHT31;55632;51.962;16.116;2023-02-28T07:57:53;0.39;79.70
68648;SHT31;55632;51.962;16.116;2023-02-28T08:02:54;0.48;79.46
68648;SHT31;55632;51.962;16.116;2023-02-28T08:07:55;0.57;79.10
68648;SHT31;55632;51.962;16.116;2023-02-28T08:12:56;0.67;78.76
68648;SHT31;55632;51.962;16.116;2023-02-28T08:17:56;0.76;78.44
68648;SHT31;55632;51.962;16.116;2023-02-28T08:22:57;0.85;78.34
68648;SHT31;55632;51.962;16.116;2023-02-28T08:27:58;0.95;78.17
68648;SHT31;55632;51.962;16.116;2023-02-28T08:32:59;1.04;77.91
68648;SHT31;55632;51.962;16.116;2023-02-28T08:38:00;1.11;77.97
68648;SHT31;55632;51.962;16.116;2023-02-28T08:43:00;1.22;77.69
68648;SHT31;55632;51.962;16.116;2023-02-28T08:48:01;1.35;77.32
68648;SHT31;55632;51.962;16.116;2023-02-28T08:53:02;1.40;76.99
68648;SHT31;55632;51.962;16.116;2023-02-28T08:58:03;1.50;76.70
68648;SHT31;55632;51.962;16.116;2023-02-28T09:03:03;1.57;75.84
68648;SHT31;55632;51.962;16.116;2023-02-28T09:08:04;1.67;75.32
68648;SHT31;55632;51.962;16.116;2023-02-28T09:13:07;1.77;74.75
68648;SHT31;55632;51.962;16.116;2023-02-28T09:18:07;1.88;73.89
68648;SHT31;55632;51.962;16.116;2023-02-28T09:23:09;1.95;73.07
68648;SHT31;55632;51.962;16.116;2023-02-28T09:28:10;1.99;72.37
68648;SHT31;55632;51.962;16.116;2023-02-28T09:33:11;2.09;72.55
68648;SHT31;55632;51.962;16.116;2023-02-28T09:38:12;2.16;71.27
68648;SHT31;55632;51.962;16.116;2023-02-28T09:43:14;2.25;71.33
68648;SHT31;55632;51.962;16.116;2023-02-28T09:48:29;2.25;71.23
68648;SHT31;55632;51.962;16.116;2023-02-28T09:53:35;2.28;70.64
68648;SHT31;55632;51.962;16.116;2023-02-28T09:58:50;2.26;70.66
68648;SHT31;55632;51.962;16.116;2023-02-28T10:04:02;2.28;70.07
68648;SHT31;55632;51.962;16.116;2023-02-28T10:09:13;2.36;69.45
68648;SHT31;55632;51.962;16.116;2023-02-28T10:14:21;2.43;68.96
68648;SHT31;55632;51.962;16.116;2023-02-28T10:20:22;2.51;68.55
68648;SHT31;55632;51.962;16.116;2023-02-28T10:25:28;2.62;68.15
68648;SHT31;55632;51.962;16.116;2023-02-28T10:30:29;2.70;68.03
68648;SHT31;55632;51.962;16.116;2023-02-28T10:35:30;2.78;67.61
68648;SHT31;55632;51.962;16.116;2023-02-28T10:40:34;2.81;66.61
68648;SHT31;55632;51.962;16.116;2023-02-28T10:45:35;2.88;66.23
68648;SHT31;55632;51.962;16.116;2023-02-28T10:55:43;2.99;65.96
68648;SHT31;55632;51.962;16.116;2023-02-28T11:00:44;3.05;65.45
68648;SHT31;55632;51.962;16.116;2023-02-28T11:05:45;3.09;64.67
68648;SHT31;55632;51.962;16.116;2023-02-28T11:10:54;3.09;64.53
68648;SHT31;55632;51.962;16.116;2023-02-28T11:15:59;3.15;64.21
68648;SHT31;55632;51.962;16.116;2023-02-28T11:21:01;3.16;62.99
68648;SHT31;55632;51.962;16.116;2023-02-28T11:26:04;3.23;62.47
68648;SHT31;55632;51.962;16.116;2023-02-28T11:36:13;3.31;61.05
68648;SHT31;55632;51.962;16.116;2023-02-28T11:47:00;3.34;59.98
68648;SHT31;55632;51.962;16.116;2023-02-28T12:29:42;3.60;57.83
68648;SHT31;55632;51.962;16.116;2023-02-28T12:34:54;3.64;57.53
68648;SHT31;55632;51.962;16.116;2023-02-28T12:40:02;3.65;57.53
68648;SHT31;55632;51.962;16.116;2023-02-28T12:45:27;3.72;57.58
68648;SHT31;55632;51.962;16.116;2023-02-28T12:50:32;3.77;57.48
68648;SHT31;55632;51.962;16.116;2023-02-28T12:55:45;3.78;57.79
68648;SHT31;55632;51.962;16.116;2023-02-28T13:06:29;3.96;58.52
68648;SHT31;55632;51.962;16.116;2023-02-28T13:22:01;4.11;58.76
68648;SHT31;55632;51.962;16.116;2023-02-28T14:08:55;4.17;58.65
68648;SHT31;55632;51.962;16.116;2023-02-28T14:13:57;4.23;58.55
68648;SHT31;55632;51.962;16.116;2023-02-28T14:18:59;4.23;58.30
68648;SHT31;55632;51.962;16.116;2023-02-28T14:35:09;4.17;58.89
68648;SHT31;55632;51.962;16.116;2023-02-28T14:40:33;4.17;59.07
68648;SHT31;55632;51.962;16.116;2023-02-28T14:45:36;4.14;59.19
68648;SHT31;55632;51.962;16.116;2023-02-28T14:50:38;4.13;59.37
68648;SHT31;55632;51.962;16.116;2023-02-28T14:55:43;4.09;59.33
68648;SHT31;55632;51.962;16.116;2023-02-28T15:00:49;4.07;59.56
68648;SHT31;55632;51.962;16.116;2023-02-28T15:05:52;4.07;59.85
68648;SHT31;55632;51.962;16.116;2023-02-28T15:11:05;4.06;60.12
68648;SHT31;55632;51.962;16.116;2023-02-28T15:16:16;4.06;60.52
68648;SHT31;55632;51.962;16.116;2023-02-28T15:21:38;4.00;60.52
68648;SHT31;55632;51.962;16.116;2023-02-28T15:26:46;3.99;60.62
68648;SHT31;55632;51.962;16.116;2023-02-28T15:36:51;3.92;60.92
68648;SHT31;55632;51.962;16.116;2023-02-28T15:41:55;3.85;61.31
68648;SHT31;55632;51.962;16.116;2023-02-28T15:47:21;3.79;61.41
68648;SHT31;55632;51.962;16.116;2023-02-28T15:52:37;3.69;61.36
68648;SHT31;55632;51.962;16.116;2023-02-28T15:57:40;3.62;61.42
68648;SHT31;55632;51.962;16.116;2023-02-28T16:02:41;3.55;61.44
68648;SHT31;55632;51.962;16.116;2023-02-28T16:07:42;3.43;61.37
68648;SHT31;55632;51.962;16.116;2023-02-28T16:12:44;3.34;61.47
68648;SHT31;55632;51.962;16.116;2023-02-28T16:17:45;3.20;61.56
68648;SHT31;55632;51.962;16.116;2023-02-28T16:22:47;3.12;61.85
68648;SHT31;55632;51.962;16.116;2023-02-28T16:27:49;3.00;62.24
68648;SHT31;55632;51.962;16.116;2023-02-28T16:32:54;2.87;62.83
68648;SHT31;55632;51.962;16.116;2023-02-28T16:37:54;2.74;63.48
68648;SHT31;55632;51.962;16.116;2023-02-28T16:42:58;2.58;64.05
68648;SHT31;55632;51.962;16.116;2023-02-28T16:48:00;2.46;64.57
68648;SHT31;55632;51.962;16.116;2023-02-28T16:53:01;2.26;65.07
68648;SHT31;55632;51.962;16.116;2023-02-28T16:58:02;2.16;65.52
68648;SHT31;55632;51.962;16.116;2023-02-28T17:03:03;2.01;65.94
68648;SHT31;55632;51.962;16.116;2023-02-28T17:08:06;1.91;66.39
68648;SHT31;55632;51.962;16.116;2023-02-28T17:13:07;1.79;66.72
68648;SHT31;55632;51.962;16.116;2023-02-28T17:18:14;1.70;67.04
68648;SHT31;55632;51.962;16.116;2023-02-28T17:23:16;1.56;67.47
68648;SHT31;55632;51.962;16.116;2023-02-28T17:28:17;1.43;67.85
68648;SHT31;55632;51.962;16.116;2023-02-28T17:33:18;1.33;68.19
68648;SHT31;55632;51.962;16.116;2023-02-28T17:38:19;1.22;68.44
68648;SHT31;55632;51.962;16.116;2023-02-28T17:43:25;1.12;68.62
68648;SHT31;55632;51.962;16.116;2023-02-28T17:48:26;1.02;68.92
68648;SHT31;55632;51.962;16.116;2023-02-28T17:53:27;0.92;69.19
68648;SHT31;55632;51.962;16.116;2023-02-28T17:58:28;0.87;69.29
68648;SHT31;55632;51.962;16.116;2023-02-28T18:03:28;0.72;69.56
68648;SHT31;55632;51.962;16.116;2023-02-28T18:08:32;0.62;69.96
68648;SHT31;55632;51.962;16.116;2023-02-28T18:13:35;0.55;70.33
68648;SHT31;55632;51.962;16.116;2023-02-28T18:18:36;0.48;70.58
68648;SHT31;55632;51.962;16.116;2023-02-28T18:23:38;0.39;70.79
68648;SHT31;55632;51.962;16.116;2023-02-28T18:28:47;0.30;71.04
68648;SHT31;55632;51.962;16.116;2023-02-28T18:33:49;0.21;71.18
68648;SHT31;55632;51.962;16.116;2023-02-28T18:38:51;0.15;71.39
68648;SHT31;55632;51.962;16.116;2023-02-28T18:43:52;0.10;71.64
68648;SHT31;55632;51.962;16.116;2023-02-28T18:48:53;0.00;71.75
68648;SHT31;55632;51.962;16.116;2023-02-28T18:53:54;-0.06;71.97
68648;SHT31;55632;51.962;16.116;2023-02-28T18:58:55;-0.17;72.05
68648;SHT31;55632;51.962;16.116;2023-02-28T19:03:57;-0.25;72.19
68648;SHT31;55632;51.962;16.116;2023-02-28T19:09:01;-0.34;72.42
68648;SHT31;55632;51.962;16.116;2023-02-28T19:14:03;-0.40;72.60
68648;SHT31;55632;51.962;16.116;2023-02-28T19:19:04;-0.50;72.77
68648;SHT31;55632;51.962;16.116;2023-02-28T19:24:05;-0.59;72.91
68648;SHT31;55632;51.962;16.116;2023-02-28T19:29:06;-0.65;73.09
68648;SHT31;55632;51.962;16.116;2023-02-28T19:34:07;-0.77;73.22
68648;SHT31;55632;51.962;16.116;2023-02-28T19:39:08;-0.85;73.48
68648;SHT31;55632;51.962;16.116;2023-02-28T19:44:08;-0.97;73.61
68648;SHT31;55632;51.962;16.116;2023-02-28T19:49:09;-1.08;73.90
68648;SHT31;55632;51.962;16.116;2023-02-28T19:54:12;-1.14;74.00
68648;SHT31;55632;51.962;16.116;2023-02-28T19:59:13;-1.21;74.18
68648;SHT31;55632;51.962;16.116;2023-02-28T20:04:14;-1.31;74.35
68648;SHT31;55632;51.962;16.116;2023-02-28T20:09:15;-1.34;74.38
68648;SHT31;55632;51.962;16.116;2023-02-28T20:14:16;-1.44;74.72
68648;SHT31;55632;51.962;16.116;2023-02-28T20:19:17;-1.48;74.76
68648;SHT31;55632;51.962;16.116;2023-02-28T20:24:20;-1.58;74.90
68648;SHT31;55632;51.962;16.116;2023-02-28T20:29:25;-1.60;75.10
68648;SHT31;55632;51.962;16.116;2023-02-28T20:34:26;-1.66;75.24
68648;SHT31;55632;51.962;16.116;2023-02-28T20:39:27;-1.69;75.50
68648;SHT31;55632;51.962;16.116;2023-02-28T20:44:28;-1.79;75.67
68648;SHT31;55632;51.962;16.116;2023-02-28T20:49:28;-1.82;75.77
68648;SHT31;55632;51.962;16.116;2023-02-28T20:54:29;-1.87;75.98
68648;SHT31;55632;51.962;16.116;2023-02-28T20:59:30;-1.93;76.10
68648;SHT31;55632;51.962;16.116;2023-02-28T21:04:31;-2.00;76.30
68648;SHT31;55632;51.962;16.116;2023-02-28T21:09:32;-2.04;76.49
68648;SHT31;55632;51.962;16.116;2023-02-28T21:14:33;-2.05;76.62
68648;SHT31;55632;51.962;16.116;2023-02-28T21:19:33;-2.10;76.79
68648;SHT31;55632;51.962;16.116;2023-02-28T21:24:34;-2.14;76.79
68648;SHT31;55632;51.962;16.116;2023-02-28T21:29:35;-2.17;77.04
68648;SHT31;55632;51.962;16.116;2023-02-28T21:34:36;-2.22;77.05
68648;SHT31;55632;51.962;16.116;2023-02-28T21:39:38;-2.24;77.27
68648;SHT31;55632;51.962;16.116;2023-02-28T21:44:39;-2.32;77.52
68648;SHT31;55632;51.962;16.116;2023-02-28T21:49:40;-2.36;77.63
68648;SHT31;55632;51.962;16.116;2023-02-28T21:54:41;-2.42;77.86
68648;SHT31;55632;51.962;16.116;2023-02-28T21:59:42;-2.48;78.02
68648;SHT31;55632;51.962;16.116;2023-02-28T22:04:43;-2.52;78.10
68648;SHT31;55632;51.962;16.116;2023-02-28T22:09:44;-2.54;78.24
68648;SHT31;55632;51.962;16.116;2023-02-28T22:14:45;-2.59;78.41
68648;SHT31;55632;51.962;16.116;2023-02-28T22:19:45;-2.66;78.52
68648;SHT31;55632;51.962;16.116;2023-02-28T22:24:46;-2.71;78.49
68648;SHT31;55632;51.962;16.116;2023-02-28T22:29:47;-2.76;78.70
68648;SHT31;55632;51.962;16.116;2023-02-28T22:34:51;-2.83;78.68
68648;SHT31;55632;51.962;16.116;2023-02-28T22:39:55;-2.87;78.75
68648;SHT31;55632;51.962;16.116;2023-02-28T22:44:58;-2.97;78.71
68648;SHT31;55632;51.962;16.116;2023-02-28T22:49:59;-3.02;78.89
68648;SHT31;55632;51.962;16.116;2023-02-28T22:55:00;-3.08;79.06
68648;SHT31;55632;51.962;16.116;2023-02-28T23:00:01;-3.12;79.27
68648;SHT31;55632;51.962;16.116;2023-02-28T23:05:02;-3.16;79.41
68648;SHT31;55632;51.962;16.116;2023-02-28T23:10:12;-3.22;79.39
68648;SHT31;55632;51.962;16.116;2023-02-28T23:15:15;-3.26;79.60
68648;SHT31;55632;51.962;16.116;2023-02-28T23:20:19;-3.28;79.69
68648;SHT31;55632;51.962;16.116;2023-02-28T23:25:20;-3.36;79.83
68648;SHT31;55632;51.962;16.116;2023-02-28T23:30:23;-3.40;79.99
68648;SHT31;55632;51.962;16.116;2023-02-28T23:35:24;-3.47;80.23
68648;SHT31;55632;51.962;16.116;2023-02-28T23:40:25;-3.53;80.54
68648;SHT31;55632;51.962;16.116;2023-02-28T23:45:26;-3.50;80.73
68648;SHT31;55632;51.962;16.116;2023-02-28T23:50:27;-3.51;80.85
68648;SHT31;55632;51.962;16.116;2023-02-28T23:55:28;-3.51;80.74
